sensor_id;sensor_type;location;lat;lon;timestamp;pressure;altitude;pressure_sealevel;temperature;humidity
32492;BME280;20605;49.742;18.802;2023-03-14T00:00:06;96218.14;;;10.35;88.94
32492;BME280;20605;49.742;18.802;2023-03-14T00:02:34;96209.39;;;10.42;88.68
32492;BME280;20605;49.742;18.802;2023-03-14T00:05:00;96211.56;;;10.56;88.14
32492;BME280;20605;49.742;18.802;2023-03-14T00:07:28;96205.69;;;10.58;87.90
32492;BME280;20605;49.742;18.802;2023-03-14T00:09:57;96207.09;;;10.58;87.98
32492;BME280;20605;49.742;18.802;2023-03-14T00:12:23;96194.81;;;10.54;88.11
32492;BME280;20605;49.742;18.802;2023-03-14T00:14:48;96194.77;;;10.55;88.03
32492;BME280;20605;49.742;18.802;2023-03-14T00:17:14;96184.68;;;10.52;88.03
32492;BME280;20605;49.742;18.802;2023-03-14T00:19:40;96184.16;;;10.49;88.30
32492;BME280;20605;49.742;18.802;2023-03-14T00:22:05;96190.43;;;10.45;88.34
32492;BME280;20605;49.742;18.802;2023-03-14T00:24:31;96180.76;;;10.42;88.55
32492;BME280;20605;49.742;18.802;2023-03-14T00:26:57;96160.04;;;10.37;88.65
32492;BME280;20605;49.742;18.802;2023-03-14T00:29:23;96164.19;;;10.35;88.84
32492;BME280;20605;49.742;18.802;2023-03-14T00:31:49;96158.31;;;10.34;88.96
32492;BME280;20605;49.742;18.802;2023-03-14T00:34:15;96154.81;;;10.32;89.04
32492;BME280;20605;49.742;18.802;2023-03-14T00:36:41;96149.63;;;10.32;89.14
32492;BME280;20605;49.742;18.802;2023-03-14T00:39:07;96147.77;;;10.31;89.08
32492;BME280;20605;49.742;18.802;2023-03-14T00:41:32;96151.66;;;10.29;89.24
32492;BME280;20605;49.742;18.802;2023-03-14T00:43:59;96141.29;;;10.29;89.31
32492;BME280;20605;49.742;18.802;2023-03-14T00:46:26;96130.66;;;10.32;89.02
32492;BME280;20605;49.742;18.802;2023-03-14T00:48:53;96150.40;;;10.42;88.70
32492;BME280;20605;49.742;18.802;2023-03-14T00:51:19;96145.29;;;10.49;88.28
32492;BME280;20605;49.742;18.802;2023-03-14T00:53:45;96137.06;;;10.56;88.09
32492;BME280;20605;49.742;18.802;2023-03-14T00:56:12;96128.36;;;10.54;88.01
32492;BME280;20605;49.742;18.802;2023-03-14T00:58:38;96123.35;;;10.56;87.77
32492;BME280;20605;49.742;18.802;2023-03-14T01:01:06;96120.36;;;10.57;87.71
32492;BME280;20605;49.742;18.802;2023-03-14T01:03:33;96104.91;;;10.54;87.77
32492;BME280;20605;49.742;18.802;2023-03-14T01:08:37;96106.11;;;10.51;87.56
32492;BME280;20605;49.742;18.802;2023-03-14T01:11:08;96103.32;;;10.49;87.82
32492;BME280;20605;49.742;18.802;2023-03-14T01:13:35;96088.92;;;10.45;87.96
32492;BME280;20605;49.742;18.802;2023-03-14T01:16:07;96069.36;;;10.45;87.97
32492;BME280;20605;49.742;18.802;2023-03-14T01:18:36;96062.23;;;10.42;88.19
32492;BME280;20605;49.742;18.802;2023-03-14T01:21:08;96082.83;;;10.38;88.37
32492;BME280;20605;49.742;18.802;2023-03-14T01:23:35;96065.27;;;10.40;88.21
32492;BME280;20605;49.742;18.802;2023-03-14T01:26:01;96060.33;;;10.45;88.10
32492;BME280;20605;49.742;18.802;2023-03-14T01:28:27;96045.48;;;10.41;88.38
32492;BME280;20605;49.742;18.802;2023-03-14T01:30:53;96052.33;;;10.34;88.74
32492;BME280;20605;49.742;18.802;2023-03-14T01:33:19;96035.53;;;10.31;88.92
32492;BME280;20605;49.742;18.802;2023-03-14T01:35:44;96029.95;;;10.28;89.23
32492;BME280;20605;49.742;18.802;2023-03-14T01:38:10;96026.64;;;10.26;89.33
32492;BME280;20605;49.742;18.802;2023-03-14T01:40:42;96005.14;;;10.22;89.48
32492;BME280;20605;49.742;18.802;2023-03-14T01:43:18;96006.17;;;10.20;89.69
32492;BME280;20605;49.742;18.802;2023-03-14T01:48:42;95989.19;;;10.19;89.74
32492;BME280;20605;49.742;18.802;2023-03-14T01:51:19;95988.21;;;10.27;89.46
32492;BME280;20605;49.742;18.802;2023-03-14T01:53:48;95989.21;;;10.25;89.50
32492;BME280;20605;49.742;18.802;2023-03-14T01:56:16;95969.09;;;10.25;89.38
32492;BME280;20605;49.742;18.802;2023-03-14T01:58:45;95968.40;;;10.28;89.22
32492;BME280;20605;49.742;18.802;2023-03-14T02:01:14;95962.98;;;10.31;89.08
32492;BME280;20605;49.742;18.802;2023-03-14T02:03:54;95948.08;;;10.34;89.00
32492;BME280;20605;49.742;18.802;2023-03-14T02:06:25;95945.52;;;10.38;88.63
32492;BME280;20605;49.742;18.802;2023-03-14T02:08:53;95951.57;;;10.56;87.50
32492;BME280;20605;49.742;18.802;2023-03-14T02:11:26;95937.31;;;10.73;86.68
32492;BME280;20605;49.742;18.802;2023-03-14T02:14:33;95913.73;;;10.78;86.54
32492;BME280;20605;49.742;18.802;2023-03-14T02:17:18;95924.90;;;10.77;86.75
32492;BME280;20605;49.742;18.802;2023-03-14T02:23:16;95917.52;;;10.73;86.45
32492;BME280;20605;49.742;18.802;2023-03-14T02:26:08;95916.02;;;10.77;85.80
32492;BME280;20605;49.742;18.802;2023-03-14T02:28:35;95895.33;;;10.92;85.20
32492;BME280;20605;49.742;18.802;2023-03-14T02:31:02;95889.52;;;11.01;84.46
32492;BME280;20605;49.742;18.802;2023-03-14T02:33:31;95888.50;;;11.09;83.98
32492;BME280;20605;49.742;18.802;2023-03-14T02:36:02;95877.29;;;11.21;82.94
32492;BME280;20605;49.742;18.802;2023-03-14T02:38:47;95871.36;;;11.32;82.28
32492;BME280;20605;49.742;18.802;2023-03-14T02:41:17;95891.98;;;11.30;82.48
32492;BME280;20605;49.742;18.802;2023-03-14T02:43:48;95882.06;;;11.31;82.32
32492;BME280;20605;49.742;18.802;2023-03-14T02:46:18;95889.77;;;11.32;81.88
32492;BME280;20605;49.742;18.802;2023-03-14T02:48:52;95888.54;;;11.30;82.33
32492;BME280;20605;49.742;18.802;2023-03-14T02:51:20;95902.00;;;11.26;82.19
32492;BME280;20605;49.742;18.802;2023-03-14T02:53:46;95884.86;;;11.27;81.75
32492;BME280;20605;49.742;18.802;2023-03-14T02:56:12;95900.98;;;11.33;81.32
32492;BME280;20605;49.742;18.802;2023-03-14T02:58:38;95901.87;;;11.30;81.53
32492;BME280;20605;49.742;18.802;2023-03-14T03:01:25;95915.48;;;11.24;81.87
32492;BME280;20605;49.742;18.802;2023-03-14T03:03:51;95930.44;;;11.21;82.08
32492;BME280;20605;49.742;18.802;2023-03-14T03:06:18;95939.64;;;11.19;82.26
32492;BME280;20605;49.742;18.802;2023-03-14T03:08:44;95956.42;;;11.15;82.60
32492;BME280;20605;49.742;18.802;2023-03-14T03:11:11;95976.55;;;11.06;83.08
32492;BME280;20605;49.742;18.802;2023-03-14T03:13:37;95982.84;;;10.97;83.46
32492;BME280;20605;49.742;18.802;2023-03-14T03:16:04;95974.99;;;10.92;83.75
32492;BME280;20605;49.742;18.802;2023-03-14T03:18:30;95965.52;;;10.89;83.92
32492;BME280;20605;49.742;18.802;2023-03-14T03:21:07;95967.64;;;10.85;84.20
32492;BME280;20605;49.742;18.802;2023-03-14T03:23:34;95972.70;;;10.82;84.30
32492;BME280;20605;49.742;18.802;2023-03-14T03:26:00;95962.63;;;10.79;84.32
32492;BME280;20605;49.742;18.802;2023-03-14T03:28:27;95954.21;;;10.77;84.55
32492;BME280;20605;49.742;18.802;2023-03-14T03:30:54;95960.20;;;10.73;84.73
32492;BME280;20605;49.742;18.802;2023-03-14T03:33:19;95945.58;;;10.71;84.87
32492;BME280;20605;49.742;18.802;2023-03-14T03:35:49;95925.64;;;10.68;85.06
32492;BME280;20605;49.742;18.802;2023-03-14T03:38:18;95927.55;;;10.65;85.39
32492;BME280;20605;49.742;18.802;2023-03-14T03:40:47;95929.67;;;10.64;85.40
32492;BME280;20605;49.742;18.802;2023-03-14T03:43:13;95905.51;;;10.60;85.72
32492;BME280;20605;49.742;18.802;2023-03-14T03:45:42;95923.23;;;10.54;86.22
32492;BME280;20605;49.742;18.802;2023-03-14T03:48:07;95887.77;;;10.52;86.40
32492;BME280;20605;49.742;18.802;2023-03-14T03:50:34;95887.65;;;10.45;86.65
32492;BME280;20605;49.742;18.802;2023-03-14T03:52:59;95881.98;;;10.39;86.92
32492;BME280;20605;49.742;18.802;2023-03-14T03:55:25;95889.87;;;10.35;87.12
32492;BME280;20605;49.742;18.802;2023-03-14T03:57:53;95859.81;;;10.33;87.50
32492;BME280;20605;49.742;18.802;2023-03-14T04:00:21;95870.14;;;10.32;87.71
32492;BME280;20605;49.742;18.802;2023-03-14T04:02:47;95857.71;;;10.31;87.73
32492;BME280;20605;49.742;18.802;2023-03-14T04:05:17;95860.15;;;10.28;87.97
32492;BME280;20605;49.742;18.802;2023-03-14T04:07:52;95882.48;;;10.28;88.07
32492;BME280;20605;49.742;18.802;2023-03-14T04:10:23;95875.27;;;10.27;88.17
32492;BME280;20605;49.742;18.802;2023-03-14T04:13:05;95894.42;;;10.23;88.35
32492;BME280;20605;49.742;18.802;2023-03-14T04:15:33;95909.86;;;10.20;88.64
32492;BME280;20605;49.742;18.802;2023-03-14T04:18:04;95930.80;;;10.18;88.94
32492;BME280;20605;49.742;18.802;2023-03-14T04:20:30;95945.23;;;10.17;88.97
32492;BME280;20605;49.742;18.802;2023-03-14T04:23:01;95957.96;;;10.20;88.90
32492;BME280;20605;49.742;18.802;2023-03-14T04:25:26;95977.70;;;10.23;88.66
32492;BME280;20605;49.742;18.802;2023-03-14T04:27:55;95984.31;;;10.22;88.67
32492;BME280;20605;49.742;18.802;2023-03-14T04:30:24;95994.52;;;10.23;88.63
32492;BME280;20605;49.742;18.802;2023-03-14T04:32:56;95997.48;;;10.23;88.52
32492;BME280;20605;49.742;18.802;2023-03-14T04:35:24;95996.55;;;10.24;88.67
32492;BME280;20605;49.742;18.802;2023-03-14T04:37:54;95993.53;;;10.22;88.66
32492;BME280;20605;49.742;18.802;2023-03-14T04:40:20;95992.86;;;10.19;88.81
32492;BME280;20605;49.742;18.802;2023-03-14T04:42:48;95986.73;;;10.17;88.91
32492;BME280;20605;49.742;18.802;2023-03-14T04:45:14;95996.60;;;10.17;88.94
32492;BME280;20605;49.742;18.802;2023-03-14T04:47:41;95991.39;;;10.17;88.97
32492;BME280;20605;49.742;18.802;2023-03-14T04:50:11;96010.83;;;10.17;89.01
32492;BME280;20605;49.742;18.802;2023-03-14T04:52:37;96016.90;;;10.17;88.99
32492;BME280;20605;49.742;18.802;2023-03-14T04:55:04;96015.42;;;10.15;89.16
32492;BME280;20605;49.742;18.802;2023-03-14T04:57:30;96020.05;;;10.13;89.20
32492;BME280;20605;49.742;18.802;2023-03-14T04:59:57;96013.09;;;10.10;89.31
32492;BME280;20605;49.742;18.802;2023-03-14T05:02:41;96003.64;;;10.09;89.64
32492;BME280;20605;49.742;18.802;2023-03-14T05:05:18;96004.77;;;10.10;89.53
32492;BME280;20605;49.742;18.802;2023-03-14T05:08:17;96011.75;;;10.06;89.63
32492;BME280;20605;49.742;18.802;2023-03-14T05:10:54;96009.17;;;10.03;89.72
32492;BME280;20605;49.742;18.802;2023-03-14T05:13:41;95992.16;;;10.01;89.85
32492;BME280;20605;49.742;18.802;2023-03-14T05:16:27;95993.30;;;9.99;89.87
32492;BME280;20605;49.742;18.802;2023-03-14T05:19:12;95990.11;;;9.97;89.97
32492;BME280;20605;49.742;18.802;2023-03-14T05:21:56;95977.94;;;9.98;90.07
32492;BME280;20605;49.742;18.802;2023-03-14T05:24:45;95982.04;;;9.99;90.30
32492;BME280;20605;49.742;18.802;2023-03-14T05:27:39;95981.82;;;9.99;90.23
32492;BME280;20605;49.742;18.802;2023-03-14T05:30:41;95990.84;;;10.00;90.39
32492;BME280;20605;49.742;18.802;2023-03-14T05:33:33;95998.09;;;10.00;90.52
32492;BME280;20605;49.742;18.802;2023-03-14T05:36:11;95992.33;;;10.01;90.69
32492;BME280;20605;49.742;18.802;2023-03-14T05:38:57;95995.17;;;10.03;90.62
32492;BME280;20605;49.742;18.802;2023-03-14T05:41:31;95991.79;;;10.04;90.64
32492;BME280;20605;49.742;18.802;2023-03-14T05:44:13;95986.78;;;10.06;90.62
32492;BME280;20605;49.742;18.802;2023-03-14T05:46:59;95986.02;;;10.11;90.61
32492;BME280;20605;49.742;18.802;2023-03-14T05:49:36;95978.05;;;10.17;90.55
32492;BME280;20605;49.742;18.802;2023-03-14T05:52:41;95975.02;;;10.21;90.45
32492;BME280;20605;49.742;18.802;2023-03-14T05:55:40;95961.95;;;10.25;90.47
32492;BME280;20605;49.742;18.802;2023-03-14T05:58:27;95974.01;;;10.30;90.37
32492;BME280;20605;49.742;18.802;2023-03-14T06:01:13;95972.51;;;10.34;90.29
32492;BME280;20605;49.742;18.802;2023-03-14T06:03:57;95970.95;;;10.37;90.14
32492;BME280;20605;49.742;18.802;2023-03-14T06:06:23;95973.20;;;10.37;90.14
32492;BME280;20605;49.742;18.802;2023-03-14T06:08:49;95968.39;;;10.37;90.09
32492;BME280;20605;49.742;18.802;2023-03-14T06:11:15;95962.97;;;10.37;90.11
32492;BME280;20605;49.742;18.802;2023-03-14T06:13:41;95970.19;;;10.35;90.07
32492;BME280;20605;49.742;18.802;2023-03-14T06:16:08;95957.02;;;10.32;90.27
32492;BME280;20605;49.742;18.802;2023-03-14T06:18:34;95957.91;;;10.32;90.41
32492;BME280;20605;49.742;18.802;2023-03-14T06:21:01;95952.02;;;10.32;90.43
32492;BME280;20605;49.742;18.802;2023-03-14T06:23:27;95948.92;;;10.31;90.43
32492;BME280;20605;49.742;18.802;2023-03-14T06:25:53;95948.14;;;10.33;90.50
32492;BME280;20605;49.742;18.802;2023-03-14T06:28:20;95956.14;;;10.35;90.51
32492;BME280;20605;49.742;18.802;2023-03-14T06:30:46;95955.95;;;10.38;90.54
32492;BME280;20605;49.742;18.802;2023-03-14T06:33:12;95955.42;;;10.41;90.63
32492;BME280;20605;49.742;18.802;2023-03-14T06:35:38;95952.39;;;10.45;90.63
32492;BME280;20605;49.742;18.802;2023-03-14T06:38:04;95950.88;;;10.50;90.54
32492;BME280;20605;49.742;18.802;2023-03-14T06:40:30;95948.14;;;10.55;90.57
32492;BME280;20605;49.742;18.802;2023-03-14T06:42:59;95942.60;;;10.60;90.50
32492;BME280;20605;49.742;18.802;2023-03-14T06:45:27;95933.65;;;10.68;90.37
32492;BME280;20605;49.742;18.802;2023-03-14T06:47:54;95940.95;;;10.76;90.24
32492;BME280;20605;49.742;18.802;2023-03-14T06:50:23;95929.70;;;10.81;89.87
32492;BME280;20605;49.742;18.802;2023-03-14T06:52:49;95929.31;;;10.85;89.84
32492;BME280;20605;49.742;18.802;2023-03-14T06:55:19;95921.21;;;10.89;89.59
32492;BME280;20605;49.742;18.802;2023-03-14T06:57:46;95923.25;;;10.95;89.53
32492;BME280;20605;49.742;18.802;2023-03-14T07:00:13;95917.22;;;11.02;89.49
32492;BME280;20605;49.742;18.802;2023-03-14T07:02:40;95911.42;;;11.12;89.15
32492;BME280;20605;49.742;18.802;2023-03-14T07:05:07;95914.94;;;11.19;88.87
32492;BME280;20605;49.742;18.802;2023-03-14T07:07:33;95905.60;;;11.24;88.49
32492;BME280;20605;49.742;18.802;2023-03-14T07:09:59;95912.99;;;11.28;88.51
32492;BME280;20605;49.742;18.802;2023-03-14T07:12:27;95927.52;;;11.29;88.30
32492;BME280;20605;49.742;18.802;2023-03-14T07:14:53;95929.14;;;11.36;88.28
32492;BME280;20605;49.742;18.802;2023-03-14T07:17:19;95925.77;;;11.45;87.66
32492;BME280;20605;49.742;18.802;2023-03-14T07:19:45;95925.18;;;11.57;87.55
32492;BME280;20605;49.742;18.802;2023-03-14T07:22:13;95928.48;;;11.78;86.64
32492;BME280;20605;49.742;18.802;2023-03-14T07:24:39;95934.92;;;11.96;86.00
32492;BME280;20605;49.742;18.802;2023-03-14T07:27:04;95915.18;;;12.53;84.89
32492;BME280;20605;49.742;18.802;2023-03-14T07:29:30;95920.41;;;13.14;82.97
32492;BME280;20605;49.742;18.802;2023-03-14T07:31:57;95927.21;;;13.64;81.63
32492;BME280;20605;49.742;18.802;2023-03-14T07:34:23;95947.45;;;14.18;80.05
32492;BME280;20605;49.742;18.802;2023-03-14T07:36:49;95948.36;;;14.74;78.99
32492;BME280;20605;49.742;18.802;2023-03-14T07:39:15;95955.98;;;14.73;77.49
32492;BME280;20605;49.742;18.802;2023-03-14T07:41:50;95960.25;;;14.24;77.03
32492;BME280;20605;49.742;18.802;2023-03-14T07:44:39;95964.98;;;13.65;78.08
32492;BME280;20605;49.742;18.802;2023-03-14T07:47:05;95970.99;;;13.40;78.92
32492;BME280;20605;49.742;18.802;2023-03-14T07:49:30;95966.74;;;13.34;79.87
32492;BME280;20605;49.742;18.802;2023-03-14T07:51:56;95961.33;;;13.29;79.67
32492;BME280;20605;49.742;18.802;2023-03-14T07:54:23;95968.60;;;13.20;79.95
32492;BME280;20605;49.742;18.802;2023-03-14T07:56:50;95980.21;;;13.41;80.56
32492;BME280;20605;49.742;18.802;2023-03-14T07:59:17;95943.13;;;14.28;79.93
32492;BME280;20605;49.742;18.802;2023-03-14T08:01:44;95943.48;;;15.55;76.82
32492;BME280;20605;49.742;18.802;2023-03-14T08:04:10;95947.98;;;16.50;73.28
32492;BME280;20605;49.742;18.802;2023-03-14T08:06:36;95953.55;;;16.32;71.40
32492;BME280;20605;49.742;18.802;2023-03-14T08:09:03;95962.66;;;15.52;72.48
32492;BME280;20605;49.742;18.802;2023-03-14T08:11:29;95966.66;;;14.84;73.79
32492;BME280;20605;49.742;18.802;2023-03-14T08:13:54;95982.50;;;14.18;75.25
32492;BME280;20605;49.742;18.802;2023-03-14T08:16:21;95977.69;;;13.66;76.84
32492;BME280;20605;49.742;18.802;2023-03-14T08:18:47;95988.45;;;13.23;78.33
32492;BME280;20605;49.742;18.802;2023-03-14T08:21:13;95987.35;;;12.94;79.48
32492;BME280;20605;49.742;18.802;2023-03-14T08:23:39;95996.16;;;12.78;80.35
32492;BME280;20605;49.742;18.802;2023-03-14T08:26:06;95987.41;;;12.61;81.26
32492;BME280;20605;49.742;18.802;2023-03-14T08:28:32;95989.56;;;12.45;82.09
32492;BME280;20605;49.742;18.802;2023-03-14T08:31:00;95985.32;;;12.35;82.64
32492;BME280;20605;49.742;18.802;2023-03-14T08:33:27;95983.02;;;12.31;83.05
32492;BME280;20605;49.742;18.802;2023-03-14T08:35:59;95992.16;;;12.34;83.57
32492;BME280;20605;49.742;18.802;2023-03-14T08:38:25;95984.75;;;12.38;83.64
32492;BME280;20605;49.742;18.802;2023-03-14T08:40:58;96005.08;;;12.37;84.14
32492;BME280;20605;49.742;18.802;2023-03-14T08:43:25;96001.92;;;12.29;84.33
32492;BME280;20605;49.742;18.802;2023-03-14T08:45:50;96023.42;;;12.28;84.83
32492;BME280;20605;49.742;18.802;2023-03-14T08:48:16;96034.66;;;12.42;85.13
32492;BME280;20605;49.742;18.802;2023-03-14T08:50:42;96022.92;;;12.79;84.90
32492;BME280;20605;49.742;18.802;2023-03-14T08:53:09;96023.30;;;13.16;83.96
32492;BME280;20605;49.742;18.802;2023-03-14T08:55:35;96025.59;;;13.35;82.62
32492;BME280;20605;49.742;18.802;2023-03-14T08:58:01;96022.96;;;13.95;82.87
32492;BME280;20605;49.742;18.802;2023-03-14T09:00:26;96022.83;;;15.47;80.51
32492;BME280;20605;49.742;18.802;2023-03-14T09:02:52;96019.18;;;15.73;77.80
32492;BME280;20605;49.742;18.802;2023-03-14T09:05:19;96010.75;;;15.39;77.56
32492;BME280;20605;49.742;18.802;2023-03-14T09:07:47;96011.94;;;15.06;78.00
32492;BME280;20605;49.742;18.802;2023-03-14T09:10:13;96034.54;;;14.92;77.95
32492;BME280;20605;49.742;18.802;2023-03-14T09:12:39;96040.32;;;14.69;77.85
32492;BME280;20605;49.742;18.802;2023-03-14T09:15:06;96027.58;;;14.78;79.00
32492;BME280;20605;49.742;18.802;2023-03-14T09:17:32;96025.76;;;15.21;79.16
32492;BME280;20605;49.742;18.802;2023-03-14T09:19:58;96031.54;;;15.74;77.50
32492;BME280;20605;49.742;18.802;2023-03-14T09:22:24;96041.77;;;15.88;76.78
32492;BME280;20605;49.742;18.802;2023-03-14T09:24:49;96048.27;;;15.90;76.02
32492;BME280;20605;49.742;18.802;2023-03-14T09:27:22;96044.88;;;15.74;75.76
32492;BME280;20605;49.742;18.802;2023-03-14T09:29:47;96040.88;;;15.88;77.25
32492;BME280;20605;49.742;18.802;2023-03-14T09:32:13;96040.20;;;16.54;76.46
32492;BME280;20605;49.742;18.802;2023-03-14T09:34:39;96030.73;;;16.63;74.63
32492;BME280;20605;49.742;18.802;2023-03-14T09:37:05;96031.20;;;16.66;75.24
32492;BME280;20605;49.742;18.802;2023-03-14T09:39:30;96037.29;;;16.70;73.84
32492;BME280;20605;49.742;18.802;2023-03-14T09:41:57;96044.55;;;16.50;74.30
32492;BME280;20605;49.742;18.802;2023-03-14T09:44:29;96050.11;;;16.47;74.90
32492;BME280;20605;49.742;18.802;2023-03-14T09:47:03;96051.80;;;16.49;74.68
32492;BME280;20605;49.742;18.802;2023-03-14T09:49:33;96049.34;;;16.64;74.77
32492;BME280;20605;49.742;18.802;2023-03-14T09:52:02;96051.34;;;16.51;74.45
32492;BME280;20605;49.742;18.802;2023-03-14T09:56:58;96049.50;;;16.01;74.60
32492;BME280;20605;49.742;18.802;2023-03-14T09:59:25;96064.23;;;15.57;75.02
32492;BME280;20605;49.742;18.802;2023-03-14T10:01:52;96061.52;;;15.05;76.16
32492;BME280;20605;49.742;18.802;2023-03-14T10:04:21;96054.73;;;14.68;77.08
32492;BME280;20605;49.742;18.802;2023-03-14T10:06:48;96056.70;;;14.28;78.06
32492;BME280;20605;49.742;18.802;2023-03-14T10:09:21;96064.95;;;13.96;78.91
32492;BME280;20605;49.742;18.802;2023-03-14T10:11:57;96060.55;;;13.75;80.25
32492;BME280;20605;49.742;18.802;2023-03-14T10:14:36;96054.92;;;13.64;81.02
32492;BME280;20605;49.742;18.802;2023-03-14T10:17:08;96051.96;;;13.61;81.58
32492;BME280;20605;49.742;18.802;2023-03-14T10:19:36;96041.73;;;13.68;81.97
32492;BME280;20605;49.742;18.802;2023-03-14T10:22:04;96057.05;;;13.70;82.38
32492;BME280;20605;49.742;18.802;2023-03-14T10:24:33;96058.70;;;13.72;82.74
32492;BME280;20605;49.742;18.802;2023-03-14T10:27:18;96055.96;;;13.71;82.53
32492;BME280;20605;49.742;18.802;2023-03-14T10:29:55;96065.14;;;13.70;82.99
32492;BME280;20605;49.742;18.802;2023-03-14T10:32:37;96059.39;;;13.72;83.15
32492;BME280;20605;49.742;18.802;2023-03-14T10:37:58;96066.38;;;13.84;83.67
32492;BME280;20605;49.742;18.802;2023-03-14T10:40:31;96075.08;;;13.94;83.43
32492;BME280;20605;49.742;18.802;2023-03-14T10:43:04;96073.77;;;13.97;83.45
32492;BME280;20605;49.742;18.802;2023-03-14T10:45:41;96072.86;;;13.98;83.66
32492;BME280;20605;49.742;18.802;2023-03-14T10:50:54;96056.79;;;14.08;83.83
32492;BME280;20605;49.742;18.802;2023-03-14T10:53:21;96049.95;;;14.22;83.44
32492;BME280;20605;49.742;18.802;2023-03-14T10:55:47;96057.40;;;14.30;83.18
32492;BME280;20605;49.742;18.802;2023-03-14T10:58:30;96056.95;;;14.41;83.30
32492;BME280;20605;49.742;18.802;2023-03-14T11:03:30;96047.73;;;14.45;82.93
32492;BME280;20605;49.742;18.802;2023-03-14T11:13:50;96025.66;;;14.34;83.96
32492;BME280;20605;49.742;18.802;2023-03-14T11:17:02;96022.61;;;14.40;84.25
32492;BME280;20605;49.742;18.802;2023-03-14T11:22:18;96015.00;;;14.67;84.32
32492;BME280;20605;49.742;18.802;2023-03-14T11:29:58;96013.97;;;15.03;83.66
32492;BME280;20605;49.742;18.802;2023-03-14T11:34:58;96010.05;;;15.12;83.00
32492;BME280;20605;49.742;18.802;2023-03-14T11:42:35;96012.00;;;14.96;83.24
32492;BME280;20605;49.742;18.802;2023-03-14T11:45:03;96013.61;;;14.94;83.77
32492;BME280;20605;49.742;18.802;2023-03-14T11:47:36;96024.23;;;14.92;84.15
32492;BME280;20605;49.742;18.802;2023-03-14T11:50:20;96027.48;;;14.88;83.99
32492;BME280;20605;49.742;18.802;2023-03-14T11:55:28;96021.59;;;14.56;84.32
32492;BME280;20605;49.742;18.802;2023-03-14T12:00:50;96018.93;;;14.45;85.57
32492;BME280;20605;49.742;18.802;2023-03-14T12:06:16;96016.95;;;14.44;86.13
32492;BME280;20605;49.742;18.802;2023-03-14T12:09:05;96019.15;;;14.49;86.43
32492;BME280;20605;49.742;18.802;2023-03-14T12:11:36;96018.08;;;14.56;86.66
32492;BME280;20605;49.742;18.802;2023-03-14T12:14:17;96026.66;;;14.62;87.01
32492;BME280;20605;49.742;18.802;2023-03-14T12:16:46;96028.05;;;14.63;86.90
32492;BME280;20605;49.742;18.802;2023-03-14T12:24:22;96016.98;;;14.20;88.39
32492;BME280;20605;49.742;18.802;2023-03-14T12:27:00;96018.17;;;14.11;88.98
32492;BME280;20605;49.742;18.802;2023-03-14T12:29:26;96015.38;;;14.06;89.38
32492;BME280;20605;49.742;18.802;2023-03-14T12:34:32;96017.13;;;14.03;90.31
32492;BME280;20605;49.742;18.802;2023-03-14T12:37:10;96009.53;;;14.02;90.45
32492;BME280;20605;49.742;18.802;2023-03-14T12:42:42;96019.59;;;14.01;90.98
32492;BME280;20605;49.742;18.802;2023-03-14T12:45:32;96020.70;;;13.93;91.17
32492;BME280;20605;49.742;18.802;2023-03-14T12:48:09;96026.96;;;13.84;91.68
32492;BME280;20605;49.742;18.802;2023-03-14T12:50:42;96034.60;;;13.72;91.79
32492;BME280;20605;49.742;18.802;2023-03-14T13:00:54;96024.37;;;13.15;93.97
32492;BME280;20605;49.742;18.802;2023-03-14T13:03:25;96028.60;;;13.07;94.20
32492;BME280;20605;49.742;18.802;2023-03-14T13:05:58;96031.55;;;13.00;94.75
32492;BME280;20605;49.742;18.802;2023-03-14T13:08:43;96041.89;;;12.94;94.99
32492;BME280;20605;49.742;18.802;2023-03-14T13:11:16;96045.92;;;12.86;95.44
32492;BME280;20605;49.742;18.802;2023-03-14T13:13:49;96040.23;;;12.83;95.86
32492;BME280;20605;49.742;18.802;2023-03-14T13:16:19;96036.93;;;12.80;96.02
32492;BME280;20605;49.742;18.802;2023-03-14T13:18:47;96040.88;;;12.76;96.13
32492;BME280;20605;49.742;18.802;2023-03-14T13:21:17;96048.48;;;12.71;96.34
32492;BME280;20605;49.742;18.802;2023-03-14T13:24:00;96054.06;;;12.66;96.44
32492;BME280;20605;49.742;18.802;2023-03-14T13:26:44;96058.79;;;12.63;96.96
32492;BME280;20605;49.742;18.802;2023-03-14T13:29:22;96063.34;;;12.56;97.20
32492;BME280;20605;49.742;18.802;2023-03-14T13:31:54;96066.81;;;12.46;97.86
32492;BME280;20605;49.742;18.802;2023-03-14T13:34:25;96063.70;;;12.37;98.32
32492;BME280;20605;49.742;18.802;2023-03-14T13:36:53;96065.24;;;12.32;99.11
32492;BME280;20605;49.742;18.802;2023-03-14T13:39:21;96065.59;;;12.27;99.50
32492;BME280;20605;49.742;18.802;2023-03-14T13:41:58;96068.16;;;12.18;99.85
32492;BME280;20605;49.742;18.802;2023-03-14T13:47:02;96065.25;;;11.98;100.00
32492;BME280;20605;49.742;18.802;2023-03-14T13:49:31;96069.25;;;11.90;100.00
32492;BME280;20605;49.742;18.802;2023-03-14T13:51:59;96070.13;;;11.79;100.00
32492;BME280;20605;49.742;18.802;2023-03-14T13:54:26;96069.98;;;11.70;100.00
32492;BME280;20605;49.742;18.802;2023-03-14T13:57:04;96077.34;;;11.64;100.00
32492;BME280;20605;49.742;18.802;2023-03-14T13:59:32;96074.62;;;11.58;100.00
32492;BME280;20605;49.742;18.802;2023-03-14T14:02:04;96070.71;;;11.54;100.00
32492;BME280;20605;49.742;18.802;2023-03-14T14:04:33;96070.54;;;11.48;100.00
32492;BME280;20605;49.742;18.802;2023-03-14T14:07:07;96074.35;;;11.39;100.00
32492;BME280;20605;49.742;18.802;2023-03-14T14:09:41;96071.17;;;11.35;100.00
32492;BME280;20605;49.742;18.802;2023-03-14T14:12:22;96071.05;;;11.31;100.00
32492;BME280;20605;49.742;18.802;2023-03-14T14:15:16;96077.23;;;11.27;100.00
32492;BME280;20605;49.742;18.802;2023-03-14T14:17:54;96067.63;;;11.20;100.00
32492;BME280;20605;49.742;18.802;2023-03-14T14:20:42;96067.52;;;11.13;100.00